Terminal Aerodrome Forecast
Issued by NWS Cleveland, OH

Home | Current Version | Previous Version | Text Only | Print | Product List | Glossary On
Versions: 1 2 3 4 5 6 7 8 9 10 11 12 13 14 15 16 17 18 19 20 21 22 23 24 25 26 27
736
FTUS41 KCLE 110528
TAFCLE
TAF
KCLE 110528Z 1106/1212 19006KT 4SM -SN OVC025
     FM110800 18006KT 2SM -SN OVC015
     FM111600 17010G18KT 1SM -SN OVC010
     FM112300 16012G20KT 2SM -SN OVC007
     FM120400 18012KT 4SM -RASN OVC007=

USA.gov is the U.S. government's official web portal to all federal, state and local government web resources and services.